Time;durP1;ratioP1;P1;durP2;ratioP2;P2;SDS_P1;SDS_P2;PMS_P1;PMS_P2;Temp;Humidity;BMP_temperature;BMP_pressure;BME280_temperature;BME280_humidity;BME280_pressure;Samples;Min_cycle;Max_cycle;Signal;HPM_P1;HPM_P2
2022/10/27 04:02:16;;;;;;;7.80;4.00;;;;;;;;;;5133732;23;20520;-74
2022/10/27 04:04:41;;;;;;;8.40;4.30;;;8.50;96.30;;;;;;4993739;28;20884;-74
2022/10/27 04:07:07;;;;;;;9.47;4.67;;;8.40;96.30;;;;;;4993097;28;20401;-75
2022/10/27 04:09:32;;;;;;;13.37;5.30;;;8.40;96.30;;;;;;4993711;28;20173;-75
2022/10/27 04:11:58;;;;;;;16.30;4.63;;;8.40;96.30;;;;;;4987281;28;20298;-74
2022/10/27 04:14:23;;;;;;;7.67;5.10;;;8.40;96.30;;;;;;4988135;28;20178;-76
2022/10/27 04:16:50;;;;;;;17.43;5.20;;;;;;;;;;4977821;28;20205;-75
2022/10/27 04:19:19;;;;;;;6.57;4.63;;;8.20;96.30;;;;;;4976058;28;20642;-75
2022/10/27 04:24:20;;;;;;;9.53;4.57;;;;;;;;;;5169909;23;20497;-75
2022/10/27 04:26:46;;;;;;;16.93;4.00;;;8.20;96.30;;;;;;5032187;28;20411;-75
2022/10/27 04:29:12;;;;;;;10.90;4.20;;;;;;;;;;5032806;28;20415;-76
2022/10/27 04:31:37;;;;;;;7.60;5.50;;;8.20;96.30;;;;;;5032720;28;20192;-76
2022/10/27 04:34:03;;;;;;;14.03;7.27;;;8.20;96.30;;;;;;5032660;28;20469;-75
2022/10/27 04:36:29;;;;;;;22.90;15.40;;;8.20;96.30;;;;;;5032675;28;20547;-75
2022/10/27 04:38:54;;;;;;;27.30;13.70;;;8.20;96.30;;;;;;5032046;28;20199;-73
2022/10/27 04:41:20;;;;;;;13.07;10.27;;;;;;;;;;5025576;28;20974;-79
2022/10/27 04:43:50;;;;;;;19.70;9.47;;;8.20;96.30;;;;;;5022643;28;20200;-75
2022/10/27 04:46:16;;;;;;;7.00;6.30;;;8.20;96.30;;;;;;5018651;28;20172;-75
2022/10/27 04:48:41;;;;;;;19.67;7.13;;;8.10;96.30;;;;;;5014565;28;21006;-75
2022/10/27 04:51:07;;;;;;;8.33;5.53;;;8.10;96.30;;;;;;5021375;28;20538;-74
2022/10/27 04:53:32;;;;;;;9.53;5.80;;;8.00;96.30;;;;;;5012620;28;20177;-76
2022/10/27 04:55:58;;;;;;;9.90;4.97;;;8.00;96.30;;;;;;5012455;28;20185;-75
2022/10/27 04:58:24;;;;;;;16.07;4.37;;;;;;;;;;5011924;28;20246;-74
2022/10/27 05:00:49;;;;;;;9.67;5.80;;;7.90;96.30;;;;;;5012653;28;20593;-74
2022/10/27 05:03:15;;;;;;;8.23;5.00;;;8.00;96.30;;;;;;5012401;28;20455;-74
2022/10/27 05:05:40;;;;;;;10.40;4.27;;;8.10;96.30;;;;;;4994862;28;20227;-74
2022/10/27 05:08:08;;;;;;;11.63;5.20;;;8.10;96.30;;;;;;5012260;28;20295;-74
2022/10/27 05:10:34;;;;;;;7.60;5.20;;;8.00;96.30;;;;;;5012339;28;20197;-75
2022/10/27 05:13:00;;;;;;;11.53;5.40;;;7.90;96.30;;;;;;5012416;28;20422;-74
2022/10/27 05:15:26;;;;;;;14.30;5.80;;;7.90;96.30;;;;;;4994900;28;20432;-74
2022/10/27 05:17:52;;;;;;;9.83;4.40;;;7.80;96.30;;;;;;5012240;28;20255;-74
2022/10/27 05:20:18;;;;;;;14.33;6.80;;;7.80;96.30;;;;;;5012434;28;20408;-75
2022/10/27 05:22:44;;;;;;;8.37;4.40;;;7.80;96.30;;;;;;5012170;28;20205;-75
2022/10/27 05:25:10;;;;;;;8.90;5.10;;;7.60;96.30;;;;;;5012529;28;20404;-76
2022/10/27 05:27:36;;;;;;;8.80;3.90;;;7.50;96.30;;;;;;5017918;28;20196;-75
2022/10/27 05:30:04;;;;;;;7.30;4.07;;;7.50;96.30;;;;;;5012222;28;20415;-75
2022/10/27 05:32:30;;;;;;;11.10;4.20;;;7.60;96.30;;;;;;5022903;28;20465;-78
2022/10/27 05:34:56;;;;;;;8.93;5.83;;;;;;;;;;5032190;28;20402;-76
2022/10/27 05:37:22;;;;;;;6.77;5.60;;;7.80;96.30;;;;;;5014138;28;20644;-75
2022/10/27 05:39:48;;;;;;;8.63;7.30;;;7.70;96.30;;;;;;5014408;28;20415;-76
2022/10/27 05:42:13;;;;;;;12.20;8.27;;;7.60;96.30;;;;;;5031682;28;20279;-75
2022/10/27 05:44:39;;;;;;;11.50;6.77;;;7.50;96.30;;;;;;5031746;28;20614;-75
2022/10/27 05:47:04;;;;;;;10.90;6.07;;;;;;;;;;5013649;28;20188;-76
2022/10/27 05:49:30;;;;;;;12.40;6.10;;;7.60;96.30;;;;;;5013977;28;20229;-77
2022/10/27 05:51:56;;;;;;;12.93;6.13;;;;;;;;;;5031448;28;20449;-75
2022/10/27 05:54:21;;;;;;;12.90;6.97;;;7.60;96.30;;;;;;5031593;28;20172;-76
2022/10/27 05:56:49;;;;;;;21.53;9.00;;;7.60;96.30;;;;;;5031425;28;20609;-76
2022/10/27 05:59:15;;;;;;;10.93;6.07;;;;;;;;;;5031693;28;20180;-77
2022/10/27 06:01:40;;;;;;;10.10;6.37;;;7.80;96.30;;;;;;5013608;28;21227;-77
2022/10/27 06:04:06;;;;;;;15.93;6.00;;;7.90;96.30;;;;;;5031006;28;20200;-78
2022/10/27 06:06:32;;;;;;;8.87;5.57;;;7.90;96.30;;;;;;5028200;28;20189;-78
2022/10/27 06:08:57;;;;;;;17.90;5.83;;;7.80;96.30;;;;;;5019450;28;20753;-77
2022/10/27 06:11:23;;;;;;;16.93;5.80;;;7.80;96.30;;;;;;5017035;28;20211;-77
2022/10/27 06:13:50;;;;;;;9.13;5.43;;;8.00;96.30;;;;;;5022731;28;20254;-77
2022/10/27 06:16:16;;;;;;;6.13;4.00;;;8.30;96.30;;;;;;5026105;28;20674;-80
2022/10/27 06:18:41;;;;;;;5.90;4.27;;;8.60;96.30;;;;;;5004575;28;20431;-77
2022/10/27 06:21:07;;;;;;;9.10;4.47;;;;;;;;;;5014032;28;20441;-79
2022/10/27 06:23:33;;;;;;;8.60;3.90;;;9.30;96.30;;;;;;5040503;28;20210;-76
2022/10/27 06:25:59;;;;;;;5.73;3.87;;;;;;;;;;5047341;28;20497;-79
2022/10/27 06:28:24;;;;;;;3.30;2.93;;;10.20;96.30;;;;;;5047667;28;20175;-77
2022/10/27 06:30:50;;;;;;;5.10;2.30;;;10.30;96.30;;;;;;5052391;28;20794;-78
2022/10/27 06:33:15;;;;;;;2.93;2.57;;;10.70;96.30;;;;;;5030942;28;20250;-77
2022/10/27 06:35:41;;;;;;;3.43;2.33;;;11.00;96.30;;;;;;5051573;28;20254;-78
2022/10/27 06:38:08;;;;;;;4.13;2.83;;;11.10;96.30;;;;;;5052739;28;20258;-78
2022/10/27 06:40:33;;;;;;;3.27;2.93;;;11.40;96.30;;;;;;5052176;28;20672;-78
2022/10/27 06:42:59;;;;;;;3.27;2.10;;;11.40;96.30;;;;;;5047949;28;20545;-78
2022/10/27 06:45:24;;;;;;;3.20;2.50;;;11.20;96.30;;;;;;5052923;28;20262;-78
2022/10/27 06:47:57;;;;;;;3.53;2.03;;;11.00;96.30;;;;;;5045932;28;20658;-78
2022/10/27 06:50:23;;;;;;;3.27;2.30;;;10.70;96.30;;;;;;5050048;28;20233;-78
2022/10/27 06:52:50;;;;;;;2.27;2.07;;;10.40;96.30;;;;;;5052295;28;20520;-78
2022/10/27 06:55:15;;;;;;;3.10;2.57;;;10.10;96.30;;;;;;5050812;28;20179;-78
2022/10/27 06:57:42;;;;;;;4.37;2.50;;;9.70;96.30;;;;;;5051233;28;20425;-78
2022/10/27 07:00:09;;;;;;;5.40;3.07;;;9.60;96.30;;;;;;5027541;28;20184;-78
2022/10/27 07:02:35;;;;;;;4.93;2.70;;;;;;;;;;5051459;28;20411;-77
2022/10/27 07:05:01;;;;;;;2.50;2.30;;;9.40;96.30;;;;;;5044695;28;20410;-76
2022/10/27 07:07:27;;;;;;;5.23;3.30;;;9.30;96.30;;;;;;5016879;28;20812;-76
2022/10/27 07:09:52;;;;;;;9.10;3.17;;;9.30;96.30;;;;;;5034936;28;20419;-76
2022/10/27 07:12:18;;;;;;;4.10;3.03;;;9.30;96.30;;;;;;5015519;28;20197;-76
2022/10/27 07:14:43;;;;;;;4.97;3.20;;;;;;;;;;5014323;28;20181;-76
2022/10/27 07:17:09;;;;;;;3.97;2.37;;;9.30;96.30;;;;;;5013757;28;20755;-75
2022/10/27 07:19:35;;;;;;;3.00;2.70;;;;;;;;;;5014134;28;20808;-76
2022/10/27 07:22:00;;;;;;;5.07;3.20;;;9.40;96.30;;;;;;5014032;28;20203;-76
2022/10/27 07:24:26;;;;;;;3.20;2.50;;;9.40;96.30;;;;;;5032987;28;20298;-76
2022/10/27 07:26:52;;;;;;;5.30;3.07;;;;;;;;;;5023925;28;20193;-75
2022/10/27 07:29:17;;;;;;;4.40;2.53;;;9.50;96.30;;;;;;5009783;28;20204;-76
2022/10/27 07:31:44;;;;;;;4.23;3.30;;;9.50;96.30;;;;;;5032211;28;20637;-78
2022/10/27 07:34:10;;;;;;;5.20;2.70;;;9.50;96.30;;;;;;5034482;28;20211;-77
2022/10/27 07:36:36;;;;;;;5.53;4.07;;;;;;;;;;5023268;28;20446;-78
2022/10/27 07:39:02;;;;;;;7.93;3.40;;;;;;;;;;5019444;28;20610;-77
2022/10/27 07:41:27;;;;;;;3.83;3.07;;;9.70;96.30;;;;;;5022128;28;20444;-77
2022/10/27 07:43:52;;;;;;;6.23;4.27;;;9.80;96.30;;;;;;5002477;28;20702;-78
2022/10/27 07:46:18;;;;;;;10.83;3.97;;;9.90;96.30;;;;;;5024696;28;20194;-78
2022/10/27 07:48:43;;;;;;;6.33;3.50;;;9.90;96.30;;;;;;5019872;28;20187;-78
2022/10/27 07:51:09;;;;;;;6.00;3.50;;;10.00;96.30;;;;;;5013217;28;20215;-78
2022/10/27 07:53:35;;;;;;;6.87;3.13;;;10.10;96.30;;;;;;5025585;28;20749;-78
2022/10/27 07:56:01;;;;;;;3.90;3.03;;;10.30;96.30;;;;;;5016557;28;20184;-78
2022/10/27 07:58:27;;;;;;;3.23;2.90;;;10.40;96.30;;;;;;5016394;28;20259;-77
2022/10/27 08:00:53;;;;;;;3.57;2.90;;;10.50;96.30;;;;;;5014031;28;20478;-78
2022/10/27 08:03:21;;;;;;;4.13;2.63;;;10.60;96.30;;;;;;5024694;28;20203;-78
2022/10/27 08:05:47;;;;;;;7.70;3.90;;;10.70;96.30;;;;;;5018680;28;20180;-78
2022/10/27 08:08:14;;;;;;;5.20;3.80;;;10.80;96.30;;;;;;5035595;28;20417;-78
2022/10/27 08:10:41;;;;;;;5.27;3.80;;;11.00;96.30;;;;;;5019000;28;20493;-77
2022/10/27 08:13:08;;;;;;;5.20;3.70;;;11.10;96.30;;;;;;5009221;28;20434;-77
2022/10/27 08:15:35;;;;;;;6.90;4.20;;;11.20;96.30;;;;;;5020157;28;20418;-78
2022/10/27 08:18:02;;;;;;;6.23;3.90;;;11.40;96.30;;;;;;5011201;28;20488;-78
2022/10/27 08:20:31;;;;;;;4.10;3.60;;;11.50;96.30;;;;;;5019851;28;20480;-78
2022/10/27 08:23:02;;;;;;;5.37;4.00;;;11.60;96.30;;;;;;5005495;28;20885;-78
2022/10/27 08:25:28;;;;;;;3.57;3.10;;;11.70;96.30;;;;;;5006800;28;20780;-77
2022/10/27 08:27:54;;;;;;;6.13;3.70;;;11.80;96.30;;;;;;5014581;28;20454;-76
2022/10/27 08:30:21;;;;;;;4.50;2.93;;;11.90;96.30;;;;;;5029208;28;20403;-76
2022/10/27 08:32:47;;;;;;;9.67;3.93;;;12.00;96.30;;;;;;5014865;28;20563;-77
2022/10/27 08:35:13;;;;;;;5.30;3.80;;;12.10;96.30;;;;;;5017829;28;20470;-77
2022/10/27 08:37:39;;;;;;;6.30;3.23;;;12.20;96.30;;;;;;5025620;28;20420;-77
2022/10/27 08:40:06;;;;;;;10.00;3.60;;;12.30;96.30;;;;;;4997836;28;20415;-77
2022/10/27 08:42:32;;;;;;;6.90;3.57;;;12.50;96.30;;;;;;5027789;28;20711;-77
2022/10/27 08:45:07;;;;;;;9.17;4.00;;;12.60;96.30;;;;;;5016464;28;20503;-77
2022/10/27 08:47:33;;;;;;;3.43;3.13;;;;;;;;;;5022033;28;20706;-77
2022/10/27 08:50:06;;;;;;;7.90;3.37;;;12.90;96.30;;;;;;4998891;28;20750;-77
2022/10/27 08:52:39;;;;;;;4.80;3.33;;;13.00;96.30;;;;;;5018781;28;20434;-76
2022/10/27 08:55:13;;;;;;;7.10;3.70;;;13.20;96.30;;;;;;5013842;28;20518;-77
2022/10/27 08:57:49;;;;;;;9.00;3.50;;;13.40;96.30;;;;;;5018090;28;20502;-76
2022/10/27 09:00:15;;;;;;;4.77;3.70;;;13.60;96.30;;;;;;5011300;28;20964;-76
2022/10/27 09:02:41;;;;;;;5.87;3.43;;;;;;;;;;5000113;28;20443;-76
2022/10/27 09:05:30;;;;;;;4.83;3.70;;;13.80;96.30;;;;;;4997702;28;20431;-76
2022/10/27 09:08:09;;;;;;;6.03;3.50;;;13.90;96.30;;;;;;5010823;28;20416;-77
2022/10/27 09:10:41;;;;;;;6.43;4.23;;;14.20;96.30;;;;;;5012485;28;20435;-77
2022/10/27 09:13:35;;;;;;;7.90;4.23;;;14.40;96.30;;;;;;5012436;28;20505;-77
2022/10/27 09:16:06;;;;;;;5.50;3.50;;;14.80;96.30;;;;;;5012485;28;20416;-77
2022/10/27 09:18:50;;;;;;;5.70;3.23;;;15.10;96.30;;;;;;5014717;28;20454;-77
2022/10/27 09:21:21;;;;;;;12.90;3.30;;;15.30;96.30;;;;;;5012343;28;21068;-77
2022/10/27 09:23:55;;;;;;;8.80;3.40;;;15.50;96.30;;;;;;5034565;28;20468;-77
2022/10/27 09:26:27;;;;;;;13.70;2.77;;;15.80;96.30;;;;;;5032324;28;20789;-77
2022/10/27 09:28:54;;;;;;;2.50;2.30;;;16.00;96.30;;;;;;5019161;28;20427;-77
2022/10/27 09:31:54;;;;;;;6.13;2.97;;;16.20;96.30;;;;;;5005880;28;20982;-77
2022/10/27 09:34:38;;;;;;;2.60;2.37;;;16.50;96.30;;;;;;5016965;28;20431;-77
2022/10/27 09:37:30;;;;;;;4.17;2.70;;;16.60;96.30;;;;;;5014659;28;20427;-77
2022/10/27 09:39:57;;;;;;;9.03;2.80;;;16.60;96.30;;;;;;5023006;28;20436;-77
2022/10/27 09:42:23;;;;;;;9.13;2.57;;;16.60;96.30;;;;;;5013236;28;20450;-76
2022/10/27 09:44:55;;;;;;;3.80;2.80;;;16.70;96.30;;;;;;5032467;28;20430;-77
2022/10/27 09:47:23;;;;;;;4.13;2.20;;;16.70;96.30;;;;;;5015534;28;20424;-77
2022/10/27 09:49:50;;;;;;;6.23;2.40;;;16.80;96.30;;;;;;5009678;28;20798;-77
2022/10/27 09:52:22;;;;;;;4.10;2.10;;;16.90;96.30;;;;;;5035145;28;20451;-77
2022/10/27 09:54:53;;;;;;;6.30;2.30;;;16.90;96.30;;;;;;5015907;28;20957;-77
2022/10/27 09:57:22;;;;;;;3.50;2.33;;;17.00;96.30;;;;;;5017606;28;20435;-77
2022/10/27 10:00:13;;;;;;;5.20;2.40;;;17.30;96.30;;;;;;5019733;28;20528;-77
2022/10/27 10:02:40;;;;;;;3.63;2.30;;;18.30;96.30;;;;;;5011088;28;20574;-76
2022/10/27 10:05:19;;;;;;;6.17;2.20;;;19.20;96.30;;;;;;5015311;28;21014;-76
2022/10/27 10:07:45;;;;;;;3.93;2.10;;;19.80;96.30;;;;;;5015328;28;20423;-75
2022/10/27 10:10:18;;;;;;;3.70;1.73;;;20.40;96.30;;;;;;5021008;28;20423;-76
2022/10/27 10:12:44;;;;;;;3.27;1.60;;;20.90;96.30;;;;;;5029844;28;20425;-76
2022/10/27 10:15:09;;;;;;;3.10;1.80;;;20.90;96.30;;;;;;5036617;28;20403;-76
2022/10/27 10:17:37;;;;;;;5.20;1.70;;;21.30;96.30;;;;;;5034805;28;20183;-76
2022/10/27 10:20:05;;;;;;;2.80;1.97;;;21.70;96.30;;;;;;5013534;28;20647;-76
2022/10/27 10:25:15;;;;;;;4.27;1.60;;;22.00;96.30;;;;;;5283843;23;20564;-76
2022/10/27 10:27:47;;;;;;;5.60;1.47;;;22.10;96.30;;;;;;5022466;28;20418;-77
2022/10/27 10:30:18;;;;;;;4.80;1.50;;;22.90;96.30;;;;;;5032584;28;20441;-77
2022/10/27 10:32:48;;;;;;;2.53;1.20;;;22.90;96.30;;;;;;5032988;28;20806;-76
2022/10/27 10:35:43;;;;;;;2.20;0.90;;;22.40;96.30;;;;;;5032697;28;20498;-76
2022/10/27 10:38:30;;;;;;;3.37;1.40;;;22.30;96.30;;;;;;5031746;28;20399;-77
2022/10/27 10:40:56;;;;;;;1.80;1.00;;;;;;;;;;5012446;28;20430;-76
2022/10/27 10:43:21;;;;;;;3.10;1.27;;;21.80;96.30;;;;;;5004814;28;20462;-78
2022/10/27 10:45:53;;;;;;;4.17;1.00;;;21.80;96.30;;;;;;5031891;28;20419;-76
2022/10/27 10:48:38;;;;;;;3.37;1.00;;;21.20;96.30;;;;;;5031897;28;20275;-76
2022/10/27 10:51:08;;;;;;;1.40;0.97;;;21.00;96.30;;;;;;5025907;28;20538;-77
2022/10/27 10:53:39;;;;;;;2.40;1.47;;;20.80;96.30;;;;;;5056866;28;20502;-78
2022/10/27 10:56:29;;;;;;;1.53;1.00;;;20.70;96.30;;;;;;5052153;28;20439;-78
2022/10/27 10:59:03;;;;;;;5.40;1.50;;;21.00;96.30;;;;;;5030149;28;20452;-78
2022/10/27 11:01:40;;;;;;;4.87;1.10;;;21.30;96.30;;;;;;5047277;28;20478;-76
2022/10/27 11:04:06;;;;;;;2.30;1.33;;;;;;;;;;5023674;28;20455;-77
2022/10/27 11:06:32;;;;;;;6.10;1.13;;;;;;;;;;5032909;28;20422;-77
2022/10/27 11:09:03;;;;;;;2.63;1.10;;;21.70;96.30;;;;;;5024116;28;20412;-76
2022/10/27 11:11:35;;;;;;;4.53;1.50;;;21.60;96.30;;;;;;5013010;28;20438;-75
2022/10/27 11:14:06;;;;;;;1.83;0.97;;;21.60;96.30;;;;;;5012767;28;20427;-76
2022/10/27 11:16:34;;;;;;;4.70;0.90;;;21.60;96.30;;;;;;5020656;28;20449;-75
2022/10/27 11:19:03;;;;;;;1.67;0.80;;;21.80;96.30;;;;;;5014084;28;20470;-76
2022/10/27 11:21:41;;;;;;;1.30;0.60;;;22.00;96.30;;;;;;5030284;28;20468;-76
2022/10/27 11:24:24;;;;;;;1.63;0.83;;;22.10;96.30;;;;;;5032328;28;20466;-76
2022/10/27 11:27:02;;;;;;;1.30;0.70;;;21.80;96.30;;;;;;5029038;28;20420;-76
2022/10/27 11:30:05;;;;;;;8.40;1.00;;;21.80;96.30;;;;;;5013199;28;20408;-76
2022/10/27 11:32:36;;;;;;;1.00;0.70;;;21.80;96.30;;;;;;5013245;28;20954;-76
2022/10/27 11:35:43;;;;;;;1.30;0.70;;;21.70;96.30;;;;;;5013017;28;20522;-76
2022/10/27 11:38:24;;;;;;;1.27;0.60;;;21.80;96.30;;;;;;4993257;28;20423;-77
2022/10/27 11:41:23;;;;;;;3.20;0.60;;;22.20;96.30;;;;;;5013253;28;20458;-76
2022/10/27 11:44:02;;;;;;;2.23;0.80;;;22.30;96.30;;;;;;5021699;28;20464;-77
2022/10/27 11:47:03;;;;;;;1.10;0.70;;;22.20;93.80;;;;;;5013487;28;20408;-76
2022/10/27 11:49:41;;;;;;;1.13;0.70;;;22.00;96.30;;;;;;5004408;28;20543;-76
2022/10/27 11:52:35;;;;;;;1.00;0.60;;;21.90;95.90;;;;;;5018053;28;20446;-76
2022/10/27 11:55:03;;;;;;;2.30;0.70;;;21.90;95.30;;;;;;5030695;28;20808;-76
2022/10/27 11:57:42;;;;;;;3.90;0.70;;;21.90;94.90;;;;;;5012866;28;20414;-76
2022/10/27 12:00:20;;;;;;;1.47;0.70;;;21.90;94.20;;;;;;5009699;28;20434;-76
2022/10/27 12:03:03;;;;;;;1.07;0.80;;;21.80;94.60;;;;;;4975380;28;20558;-77
2022/10/27 12:06:07;;;;;;;2.80;0.70;;;21.90;96.30;;;;;;5011200;28;20983;-76
2022/10/27 12:09:04;;;;;;;1.20;0.70;;;22.00;96.30;;;;;;5010631;28;20408;-76
2022/10/27 12:12:06;;;;;;;1.47;0.80;;;22.00;95.20;;;;;;5011031;28;20436;-76
2022/10/27 12:14:47;;;;;;;2.40;0.70;;;22.30;95.80;;;;;;5007973;28;20919;-76
2022/10/27 12:17:17;;;;;;;1.20;0.60;;;22.50;93.30;;;;;;5010660;28;20423;-76
2022/10/27 12:19:46;;;;;;;1.67;0.70;;;22.30;93.40;;;;;;5008179;28;20432;-76
2022/10/27 12:22:32;;;;;;;1.40;0.87;;;22.20;96.10;;;;;;4993634;28;20461;-76
2022/10/27 12:25:06;;;;;;;1.40;0.60;;;22.30;96.20;;;;;;4993234;28;20440;-76
2022/10/27 12:27:35;;;;;;;1.50;0.60;;;22.30;93.80;;;;;;4975549;28;20425;-76
2022/10/27 12:30:10;;;;;;;2.43;0.80;;;22.30;94.50;;;;;;4992918;28;20448;-76
2022/10/27 12:32:38;;;;;;;1.87;1.00;;;22.40;95.50;;;;;;4990966;28;20432;-76
2022/10/27 12:35:14;;;;;;;2.90;0.80;;;22.50;94.20;;;;;;4993155;28;20428;-76
2022/10/27 12:38:05;;;;;;;1.60;1.03;;;22.20;96.20;;;;;;4982355;28;20442;-76
2022/10/27 12:41:17;;;;;;;2.37;0.80;;;21.90;94.80;;;;;;5012111;28;20408;-76
2022/10/27 12:44:20;;;;;;;3.77;0.97;;;21.70;96.30;;;;;;4985642;28;20530;-76
2022/10/27 12:46:58;;;;;;;1.67;0.80;;;21.50;95.60;;;;;;5010325;28;20953;-76
2022/10/27 12:49:39;;;;;;;2.30;0.70;;;21.40;95.90;;;;;;5012233;28;20427;-76
2022/10/27 12:52:20;;;;;;;2.00;0.80;;;21.30;96.30;;;;;;4998936;28;20434;-76
2022/10/27 12:55:23;;;;;;;2.60;0.70;;;21.50;96.30;;;;;;5030565;28;20435;-76
2022/10/27 12:58:29;;;;;;;1.10;0.70;;;21.30;96.30;;;;;;5012281;28;20526;-76
2022/10/27 13:01:09;;;;;;;1.20;0.70;;;21.40;96.30;;;;;;5010529;28;20494;-75
2022/10/27 13:04:12;;;;;;;1.20;0.70;;;21.40;96.30;;;;;;5010798;28;20542;-76
2022/10/27 13:06:55;;;;;;;1.67;0.80;;;21.60;96.30;;;;;;5009261;28;20427;-76
2022/10/27 13:09:32;;;;;;;2.27;0.80;;;21.40;96.30;;;;;;5010196;28;20420;-76
2022/10/27 13:12:14;;;;;;;4.13;0.90;;;21.60;96.30;;;;;;5009526;28;20435;-76
2022/10/27 13:15:07;;;;;;;2.60;0.77;;;21.70;96.30;;;;;;5010775;28;20535;-75
2022/10/27 13:17:56;;;;;;;1.70;0.90;;;21.60;96.30;;;;;;5009730;28;20420;-76
2022/10/27 13:20:22;;;;;;;2.00;0.90;;;;;;;;;;5010373;28;20953;-76
2022/10/27 13:22:55;;;;;;;3.53;0.80;;;21.40;96.30;;;;;;5011712;28;20407;-76
2022/10/27 13:25:30;;;;;;;1.37;1.00;;;21.20;96.30;;;;;;5010472;28;20292;-76
2022/10/27 13:28:22;;;;;;;6.73;0.87;;;21.50;96.30;;;;;;5009659;28;20436;-76
2022/10/27 13:31:04;;;;;;;11.90;1.43;;;21.20;96.30;;;;;;5004184;28;20933;-76
2022/10/27 13:33:35;;;;;;;2.57;0.83;;;21.50;96.30;;;;;;5023608;28;20431;-76
2022/10/27 13:36:21;;;;;;;1.37;0.90;;;21.80;96.30;;;;;;5010826;28;20412;-76
2022/10/27 13:38:48;;;;;;;1.47;0.80;;;21.80;96.30;;;;;;4994235;28;20526;-76
2022/10/27 13:41:54;;;;;;;1.17;1.00;;;22.10;96.30;;;;;;5011562;28;20443;-75
2022/10/27 13:44:33;;;;;;;2.70;0.80;;;22.50;96.20;;;;;;5012051;28;20455;-75
2022/10/27 13:46:59;;;;;;;2.03;1.43;;;;;;;;;;5008632;28;20427;-76
2022/10/27 13:49:49;;;;;;;5.40;1.20;;;22.80;96.30;;;;;;5008643;28;20915;-75
2022/10/27 13:52:18;;;;;;;1.97;0.80;;;22.60;95.80;;;;;;5011873;28;20201;-77
2022/10/27 13:55:06;;;;;;;2.83;1.23;;;22.60;95.80;;;;;;5011352;28;20503;-75
2022/10/27 13:57:58;;;;;;;2.70;0.80;;;22.30;94.20;;;;;;5011341;28;20400;-75
2022/10/27 14:00:54;;;;;;;1.60;0.90;;;22.20;96.30;;;;;;5006952;28;20504;-76
2022/10/27 14:03:45;;;;;;;1.40;0.80;;;22.20;95.20;;;;;;5000755;28;21025;-75
2022/10/27 14:06:13;;;;;;;1.30;0.90;;;22.10;93.60;;;;;;5012686;28;20416;-75
2022/10/27 14:08:45;;;;;;;1.83;0.80;;;22.10;94.20;;;;;;5013760;28;20804;-75
2022/10/27 14:11:18;;;;;;;1.67;1.00;;;22.10;94.30;;;;;;5014259;28;20983;-75
2022/10/27 14:13:50;;;;;;;2.20;0.87;;;21.80;96.30;;;;;;5013712;28;20900;-75
2022/10/27 14:16:35;;;;;;;1.97;1.20;;;21.60;96.30;;;;;;4996299;28;20431;-75
2022/10/27 14:19:31;;;;;;;2.00;0.80;;;21.50;96.30;;;;;;5013527;28;20503;-76
2022/10/27 14:21:57;;;;;;;1.63;0.93;;;21.40;96.30;;;;;;5013958;28;20424;-75
2022/10/27 14:24:49;;;;;;;5.00;0.80;;;21.00;96.30;;;;;;5011265;28;20473;-75
2022/10/27 14:27:16;;;;;;;1.50;0.93;;;21.00;96.30;;;;;;5011250;28;20673;-75
2022/10/27 14:29:42;;;;;;;2.80;0.80;;;20.90;96.30;;;;;;5011539;28;20416;-74
2022/10/27 14:32:21;;;;;;;5.37;1.10;;;20.60;96.30;;;;;;5013320;28;20505;-75
2022/10/27 14:34:48;;;;;;;2.67;0.90;;;20.30;96.30;;;;;;5015038;28;20407;-76
2022/10/27 14:37:25;;;;;;;1.07;0.93;;;20.20;96.30;;;;;;5014844;28;20466;-74
2022/10/27 14:39:52;;;;;;;1.87;1.07;;;19.90;96.30;;;;;;5014074;28;20443;-74
2022/10/27 14:42:26;;;;;;;1.20;0.80;;;19.70;96.30;;;;;;5014096;28;21006;-74
2022/10/27 14:44:59;;;;;;;1.93;0.90;;;19.40;96.30;;;;;;5014575;28;20875;-75
2022/10/27 14:47:25;;;;;;;1.63;1.10;;;19.20;96.30;;;;;;4996690;28;20912;-74
2022/10/27 14:50:04;;;;;;;2.37;1.10;;;19.00;96.30;;;;;;4997112;28;20420;-74
2022/10/27 14:52:38;;;;;;;1.43;0.93;;;18.80;96.30;;;;;;5014581;28;20427;-75
2022/10/27 14:55:04;;;;;;;7.20;1.40;;;18.60;96.30;;;;;;4995225;28;20411;-76
2022/10/27 14:57:33;;;;;;;5.80;1.30;;;18.50;96.30;;;;;;4977284;28;20428;-75
2022/10/27 15:00:01;;;;;;;2.03;1.30;;;18.40;96.30;;;;;;4995322;28;20174;-75
2022/10/27 15:02:27;;;;;;;1.60;1.43;;;18.20;96.30;;;;;;4995080;28;20532;-75
2022/10/27 15:04:53;;;;;;;2.30;1.57;;;18.10;96.30;;;;;;4994987;28;20457;-75
2022/10/27 15:07:19;;;;;;;1.77;1.23;;;18.00;96.30;;;;;;4994865;28;20471;-74
2022/10/27 15:09:49;;;;;;;1.37;1.10;;;17.90;96.30;;;;;;4994530;28;20224;-75
2022/10/27 15:12:22;;;;;;;4.63;1.50;;;17.70;96.30;;;;;;4977178;28;20459;-75
2022/10/27 15:14:48;;;;;;;4.13;1.47;;;17.60;96.30;;;;;;4994889;28;20405;-75
2022/10/27 15:17:17;;;;;;;3.90;1.50;;;17.50;96.30;;;;;;4994887;28;20772;-74
2022/10/27 15:19:51;;;;;;;2.03;1.27;;;17.50;96.30;;;;;;4994618;28;20511;-74
2022/10/27 15:22:18;;;;;;;4.83;1.40;;;17.40;96.30;;;;;;4994724;28;20943;-75
2022/10/27 15:24:44;;;;;;;1.87;1.20;;;17.40;96.30;;;;;;4994230;28;20460;-74
2022/10/27 15:27:14;;;;;;;3.87;1.37;;;17.30;96.30;;;;;;4999391;28;20994;-74
2022/10/27 15:29:42;;;;;;;1.53;1.30;;;17.20;96.30;;;;;;5004941;28;20412;-74
2022/10/27 15:32:18;;;;;;;2.63;1.30;;;17.10;96.30;;;;;;5004159;28;20902;-74
2022/10/27 15:34:44;;;;;;;8.67;1.97;;;17.00;96.30;;;;;;5013744;28;20783;-74
2022/10/27 15:37:33;;;;;;;7.40;2.10;;;16.80;96.30;;;;;;5003676;28;20439;-74
2022/10/27 15:40:28;;;;;;;3.73;3.30;;;16.70;96.30;;;;;;5013929;28;20167;-73
2022/10/27 15:42:57;;;;;;;5.30;3.23;;;16.50;96.30;;;;;;5013537;28;20408;-75
2022/10/27 15:45:36;;;;;;;7.57;3.37;;;16.30;96.30;;;;;;5013259;28;20419;-74
2022/10/27 15:48:02;;;;;;;3.37;2.33;;;16.10;96.30;;;;;;4995724;28;20419;-74
2022/10/27 15:50:35;;;;;;;4.67;2.63;;;16.00;96.30;;;;;;5012484;28;20503;-74
2022/10/27 15:53:16;;;;;;;3.33;2.40;;;16.00;96.30;;;;;;4993984;28;20416;-74
2022/10/27 15:55:55;;;;;;;4.40;2.47;;;16.00;96.30;;;;;;4994456;28;20438;-74
2022/10/27 15:58:27;;;;;;;4.30;2.33;;;15.90;96.30;;;;;;5011262;28;20411;-74
2022/10/27 16:01:09;;;;;;;9.40;2.53;;;15.80;96.30;;;;;;5012660;28;20585;-73
2022/10/27 16:03:36;;;;;;;7.97;2.70;;;15.80;96.30;;;;;;5011553;28;20483;-74
2022/10/27 16:06:22;;;;;;;2.63;2.00;;;15.70;96.30;;;;;;5011491;28;20427;-74
2022/10/27 16:08:48;;;;;;;11.57;3.77;;;15.50;96.30;;;;;;5010164;28;20931;-74
2022/10/27 16:11:15;;;;;;;5.70;3.13;;;15.50;96.30;;;;;;4994752;28;20446;-74
2022/10/27 16:13:47;;;;;;;12.23;3.30;;;15.40;96.30;;;;;;5010286;28;20502;-74
2022/10/27 16:16:13;;;;;;;2.80;2.30;;;15.40;96.30;;;;;;5015697;28;20419;-74
2022/10/27 16:18:40;;;;;;;5.63;3.63;;;15.30;96.30;;;;;;5013491;28;20403;-74
2022/10/27 16:21:20;;;;;;;4.70;2.97;;;15.30;96.30;;;;;;4994691;28;20193;-74
2022/10/27 16:23:45;;;;;;;7.13;3.00;;;15.20;96.30;;;;;;5008114;28;20906;-75
2022/10/27 16:26:11;;;;;;;6.23;2.40;;;15.20;96.30;;;;;;5013138;28;20438;-74
2022/10/27 16:28:40;;;;;;;4.20;2.40;;;15.20;96.30;;;;;;5012975;28;20207;-75
2022/10/27 16:31:12;;;;;;;4.13;2.23;;;15.10;96.30;;;;;;5011824;28;20213;-75
2022/10/27 16:33:38;;;;;;;6.73;2.10;;;15.10;96.30;;;;;;4999883;28;20534;-75
2022/10/27 16:36:04;;;;;;;7.30;2.43;;;;;;;;;;4988680;28;20446;-75
2022/10/27 16:38:30;;;;;;;5.33;2.90;;;;;;;;;;5013258;28;20474;-74
2022/10/27 16:40:56;;;;;;;3.40;2.40;;;15.10;96.30;;;;;;5012451;28;20439;-75
2022/10/27 16:43:24;;;;;;;9.40;2.27;;;15.00;96.30;;;;;;5012618;28;20201;-75
2022/10/27 16:45:49;;;;;;;7.40;2.30;;;15.00;96.30;;;;;;5012771;28;20173;-75
2022/10/27 16:48:16;;;;;;;4.27;2.60;;;14.90;96.30;;;;;;5018051;28;20416;-75
2022/10/27 16:50:44;;;;;;;3.57;2.30;;;14.90;96.30;;;;;;5012882;28;20192;-74
2022/10/27 16:53:09;;;;;;;4.97;2.77;;;14.80;96.30;;;;;;4995269;28;20435;-74
2022/10/27 16:55:35;;;;;;;10.13;2.83;;;14.70;96.30;;;;;;4994750;28;20775;-74
2022/10/27 16:58:00;;;;;;;4.67;3.00;;;14.60;96.30;;;;;;5012409;28;20181;-74
2022/10/27 17:00:26;;;;;;;6.90;3.67;;;;;;;;;;5012990;28;20173;-75
2022/10/27 17:02:52;;;;;;;9.17;3.87;;;14.30;96.30;;;;;;4994786;28;20196;-74
2022/10/27 17:05:17;;;;;;;6.40;4.03;;;14.20;96.30;;;;;;4994617;28;20179;-74
2022/10/27 17:07:45;;;;;;;7.87;4.50;;;14.10;96.30;;;;;;4994362;28;20184;-74
2022/10/27 17:10:11;;;;;;;8.50;4.87;;;;;;;;;;5005249;28;20207;-74
2022/10/27 17:12:36;;;;;;;7.13;3.93;;;13.90;96.30;;;;;;5011936;28;21119;-74
2022/10/27 17:15:02;;;;;;;9.17;3.80;;;13.90;96.30;;;;;;5012435;28;20657;-74
2022/10/27 17:17:27;;;;;;;11.10;5.80;;;13.90;96.30;;;;;;5011833;28;20180;-74
2022/10/27 17:19:53;;;;;;;10.70;5.10;;;13.90;96.30;;;;;;5012262;28;20187;-74
2022/10/27 17:22:18;;;;;;;9.03;4.90;;;13.90;96.30;;;;;;5012127;28;20212;-74
2022/10/27 17:24:44;;;;;;;8.27;5.30;;;13.80;96.30;;;;;;5011791;28;20235;-75
2022/10/27 17:27:09;;;;;;;12.87;8.30;;;13.80;96.30;;;;;;4994139;28;20227;-74
2022/10/27 17:29:35;;;;;;;24.20;12.67;;;13.70;96.30;;;;;;5012192;28;20625;-74